Impacts METAR Board
IDs:

KTPA - Tampa Intl Arpt, FL, US

Updated at: 1600 UTC 20 Aug 2019
Potential Impact None Slight Moderate High
Time 20/04Z 20/05Z 20/06Z 20/07Z 20/08Z 20/09Z 20/10Z 20/11Z 20/12Z 20/13Z 20/14Z 20/15Z 20/16Z
Temp81 79 79 78 78 77 77 77 78 81 83 86 87
Dewpt73 73 73 74 74 74 74 74 74 75 75 74 73
Altim30.11 30.10 30.08 30.06 30.05 30.05 30.06 30.08 30.10 30.11 30.11 30.12 30.12
VIS10 10 10 10 10 10 10 10 10 10 10 10 10
CIG230 -- -- -- -- -- -- -- -- -- 250 250 250
CoverBKNFEWSCTSCTFEWCLRCLRFEWSCTSCTBKNBKNBKN
FltCatVFRVFRVFRVFRVFRVFRVFRVFRVFRVFRVFRVFRVFR
WX--------------------------
WDir3020302040500009013090130
WSpd3 3 3 4 4 3 0 0 4 5 5 8 6
WGst-- -- -- -- -- -- -- -- -- -- -- -- --
Raw hourly METARs
KTPA 200353Z 03003KT 10SM FEW025 BKN230 27/23 A3011 RMK AO2 SLP196 FRQ LTGIC DSNT N CB DSNT N T02720228 $
KTPA 200453Z 02003KT 10SM FEW230 26/23 A3010 RMK AO2 SLP193 T02610228 403390239 $
KTPA 200553Z 03003KT 10SM SCT260 26/23 A3008 RMK AO2 SLP187 T02610228 10289 20261 58004 $
KTPA 200653Z 02004KT 10SM SCT260 26/23 A3006 RMK AO2 SLP179 T02560233 $
KTPA 200753Z 04004KT 10SM FEW025 26/23 A3005 RMK AO2 SLP176 OCNL LTGIC DSNT NW CB DSNT NW T02560233 $
KTPA 200853Z 05003KT 10SM CLR 25/23 A3005 RMK AO2 SLP174 T02500233 56012 $
KTPA 200953Z 00000KT 10SM CLR 25/23 A3006 RMK AO2 SLP179 T02500233 $
KTPA 201053Z 00000KT 10SM FEW300 25/23 A3008 RMK AO2 SLP185 T02500233
KTPA 201153Z VRB04KT 10SM FEW015 SCT250 26/23 A3010 RMK AO2 SLP191 70093 T02560233 10261 20250 53017
KTPA 201253Z 09005KT 10SM FEW015 SCT250 27/24 A3011 RMK AO2 SLP197 T02720239
KTPA 201353Z 13005KT 10SM SCT015 BKN250 28/24 A3011 RMK AO2 SLP195 T02830239 $
KTPA 201453Z COR 09008KT 10SM FEW020 SCT035 BKN250 30/23 A3012 RMK AO2 SLP197 T03000233 51006 $
KTPA 201553Z 13006KT 10SM SCT025 SCT065 BKN250 31/23 A3012 RMK AO2 SLP197 T03060228 $



Page loaded:  16:52 UTC  |   09:52 AM Pacific  |   10:52 AM Mountain  |   11:52 AM Central  |   12:52 PM Eastern

 

ADVISORIES

FORECASTS

FORECASTS

OBSERVATIONS

USER TOOLS

ABOUT US